createdAt,value
2019-03-13T00:04:09.733Z,53.12
2019-03-13T00:09:12.202Z,53.98
2019-03-13T00:14:14.653Z,54.75
2019-03-13T00:19:17.116Z,54.45
2019-03-13T00:24:19.561Z,54.15
2019-03-13T00:29:22.008Z,53.83
2019-03-13T00:34:24.450Z,53.40
2019-03-13T00:39:26.909Z,53.00
2019-03-13T00:44:29.373Z,53.05
2019-03-13T00:49:31.843Z,53.27
2019-03-13T00:54:34.298Z,53.38
2019-03-13T00:59:36.741Z,53.58
2019-03-13T01:04:39.190Z,53.40
2019-03-13T01:09:41.627Z,53.41
2019-03-13T01:14:44.406Z,53.32
2019-03-13T01:19:46.787Z,52.91
2019-03-13T01:24:49.247Z,53.47
2019-03-13T01:29:51.687Z,54.03
2019-03-13T01:34:56.927Z,54.39
2019-03-13T01:39:59.367Z,54.46
2019-03-13T01:45:01.804Z,54.30
2019-03-13T01:50:07.034Z,54.26
2019-03-13T01:55:09.473Z,54.06
2019-03-13T02:00:11.928Z,53.65
2019-03-13T02:05:14.398Z,53.69
2019-03-13T02:10:16.842Z,53.94
2019-03-13T02:15:19.277Z,54.39
2019-03-13T02:20:21.739Z,54.77
2019-03-13T02:25:24.188Z,54.97
2019-03-13T02:30:26.643Z,54.90
2019-03-13T02:35:29.133Z,55.19
2019-03-13T02:40:31.618Z,55.09
2019-03-13T02:45:34.072Z,54.99
2019-03-13T02:50:36.525Z,54.81
2019-03-13T02:55:38.993Z,54.75
2019-03-13T03:00:53.566Z,54.60
2019-03-13T03:05:56.031Z,54.61
2019-03-13T03:10:58.495Z,54.67
2019-03-13T03:16:00.946Z,54.66
2019-03-13T03:21:03.401Z,54.73
2019-03-13T03:26:05.914Z,54.76
2019-03-13T03:31:08.305Z,54.45
2019-03-13T03:36:10.752Z,54.38
2019-03-13T03:41:13.195Z,54.34
2019-03-13T03:46:15.649Z,54.47
2019-03-13T03:51:18.111Z,54.34
2019-03-13T03:56:20.570Z,54.14
2019-03-13T04:01:23.023Z,53.71
2019-03-13T04:06:25.474Z,53.44
2019-03-13T04:11:27.964Z,53.69
2019-03-13T04:16:30.424Z,53.91
2019-03-13T04:21:32.865Z,54.28
2019-03-13T04:26:35.410Z,54.66
2019-03-13T04:31:37.898Z,55.25
2019-03-13T04:36:40.343Z,55.89
2019-03-13T04:41:42.812Z,56.50
2019-03-13T04:46:45.296Z,56.97
2019-03-13T04:51:47.757Z,57.02
2019-03-13T04:56:50.215Z,56.88
2019-03-13T05:01:52.668Z,56.25
2019-03-13T05:06:55.128Z,56.40
2019-03-13T05:11:57.601Z,56.50
2019-03-13T05:17:00.109Z,56.56
2019-03-13T05:22:02.585Z,56.79
2019-03-13T05:27:05.050Z,56.73
2019-03-13T05:32:07.508Z,56.64
2019-03-13T05:37:10.027Z,56.38
2019-03-13T05:42:12.506Z,56.04
2019-03-13T05:47:14.963Z,55.78
2019-03-13T05:52:17.455Z,55.61
2019-03-13T05:57:19.931Z,55.33
2019-03-13T06:02:22.390Z,55.27
2019-03-13T06:07:24.848Z,54.88
2019-03-13T06:12:27.317Z,54.62
2019-03-13T06:17:29.791Z,54.33
2019-03-13T06:22:32.247Z,54.14
2019-03-13T06:27:34.702Z,54.10
2019-03-13T06:32:37.176Z,53.81
2019-03-13T06:37:39.638Z,53.37
2019-03-13T06:42:42.134Z,52.71
2019-03-13T06:47:44.596Z,52.46
2019-03-13T06:52:47.048Z,52.13
2019-03-13T06:57:49.499Z,51.71
2019-03-13T07:03:10.125Z,52.12
2019-03-13T07:08:12.611Z,51.66
2019-03-13T07:13:15.061Z,51.76
2019-03-13T07:18:20.456Z,51.65
2019-03-13T07:23:25.950Z,51.88
2019-03-13T07:28:46.259Z,50.55
2019-03-13T07:33:49.124Z,51.28
2019-03-13T07:39:09.847Z,52.81
2019-03-13T07:44:18.452Z,51.76
2019-03-13T07:49:33.138Z,49.15
2019-03-13T07:54:41.673Z,44.39
2019-03-13T07:59:46.899Z,33.11
2019-03-13T08:04:52.261Z,26.30
2019-03-13T08:09:57.550Z,27.78
2019-03-13T08:15:15.274Z,28.26
2019-03-13T08:20:26.657Z,21.70
2019-03-13T08:25:31.888Z,18.85
2019-03-13T08:30:52.464Z,18.61
2019-03-13T08:36:12.860Z,29.29
2019-03-13T08:41:18.243Z,35.79
2019-03-13T08:46:20.833Z,38.96
2019-03-13T08:51:32.443Z,37.69
2019-03-13T08:56:38.017Z,38.35
2019-03-13T09:01:43.390Z,37.61
2019-03-13T09:06:45.889Z,40.01
2019-03-13T09:12:06.623Z,40.76
2019-03-13T09:17:21.372Z,41.16
2019-03-13T09:22:29.420Z,42.16
2019-03-13T09:27:31.883Z,42.64
2019-03-13T09:32:37.282Z,37.84
2019-03-13T09:37:39.737Z,37.11
2019-03-13T09:42:57.288Z,34.44
2019-03-13T09:48:08.573Z,36.02
2019-03-13T09:53:20.058Z,37.81
2019-03-13T09:58:25.437Z,38.19
2019-03-13T10:03:34.035Z,34.84
2019-03-13T10:08:39.406Z,32.77
2019-03-13T10:13:53.747Z,30.63
2019-03-13T10:18:56.212Z,27.64
2019-03-13T10:24:07.904Z,26.18
2019-03-13T10:29:12.879Z,24.59
2019-03-13T10:34:30.652Z,27.14
2019-03-13T10:39:51.163Z,18.87
2019-03-13T10:44:59.810Z,23.76
2019-03-13T10:50:07.941Z,23.90
2019-03-13T10:55:28.705Z,30.52
2019-03-13T11:00:34.218Z,33.84
2019-03-13T11:05:39.647Z,38.42
2019-03-13T11:10:54.224Z,37.14
2019-03-13T11:16:15.028Z,39.42
2019-03-13T11:21:29.683Z,44.12
2019-03-13T11:26:35.033Z,44.26
2019-03-13T11:31:46.464Z,36.72
2019-03-13T11:37:04.199Z,33.49
2019-03-13T11:42:06.680Z,35.98
2019-03-13T11:47:12.267Z,37.07
2019-03-13T11:52:20.731Z,37.56
2019-03-13T11:57:41.286Z,37.01
2019-03-13T12:02:43.756Z,36.73
2019-03-13T12:07:49.171Z,36.34
2019-03-13T12:13:10.660Z,36.57
2019-03-13T12:18:18.266Z,37.85
2019-03-13T12:23:20.730Z,37.93
2019-03-13T12:28:25.689Z,37.71
2019-03-13T12:33:35.481Z,39.79
2019-03-13T12:38:36.886Z,38.83
2019-03-13T12:43:39.360Z,40.42
2019-03-13T12:48:47.777Z,39.93
2019-03-13T12:53:50.247Z,39.18
2019-03-13T12:59:11.040Z,38.55
2019-03-13T13:04:32.039Z,37.65
2019-03-13T13:09:49.726Z,37.15
2019-03-13T13:14:55.144Z,36.59
2019-03-13T13:19:57.618Z,35.38
2019-03-13T13:25:00.257Z,35.00
2019-03-13T13:30:02.559Z,36.87
2019-03-13T13:35:05.032Z,38.39
2019-03-13T13:40:10.224Z,40.13
2019-03-13T13:45:27.790Z,41.10
2019-03-13T13:50:30.281Z,40.96
2019-03-13T13:55:32.741Z,39.87
2019-03-13T14:00:35.252Z,41.27
2019-03-13T14:05:40.735Z,42.11
2019-03-13T14:10:40.200Z,42.78
2019-03-13T14:15:42.696Z,42.54
2019-03-13T14:20:45.344Z,42.26
2019-03-13T14:25:47.799Z,42.21
2019-03-13T14:30:50.280Z,41.89
2019-03-13T14:35:52.754Z,42.29
2019-03-13T14:40:55.226Z,43.07
2019-03-13T14:45:57.703Z,43.01
2019-03-13T14:51:00.174Z,43.11
2019-03-13T14:56:02.643Z,43.39
2019-03-13T15:01:05.103Z,42.97
2019-03-13T15:06:07.561Z,43.56
2019-03-13T15:11:10.040Z,43.94
2019-03-13T15:16:12.500Z,44.49
2019-03-13T15:21:14.966Z,45.16
2019-03-13T15:26:17.442Z,45.79
2019-03-13T15:31:19.911Z,45.31
2019-03-13T15:36:22.410Z,45.23
2019-03-13T15:41:24.945Z,45.45
2019-03-13T15:46:27.426Z,45.52
2019-03-13T15:51:29.903Z,45.57
2019-03-13T15:56:32.368Z,45.33
2019-03-13T16:01:34.830Z,45.66
2019-03-13T16:06:37.322Z,44.89
2019-03-13T16:11:39.796Z,44.92
2019-03-13T16:16:42.278Z,45.13
2019-03-13T16:21:44.758Z,45.30
2019-03-13T16:26:47.229Z,45.59
2019-03-13T16:31:49.693Z,46.09
2019-03-13T16:36:52.139Z,46.33
2019-03-13T16:41:54.611Z,46.50
2019-03-13T16:46:57.066Z,46.92
2019-03-13T16:51:59.556Z,47.05
2019-03-13T16:57:02.049Z,47.11
2019-03-13T17:02:04.509Z,47.45
2019-03-13T17:07:06.974Z,47.72
2019-03-13T17:12:09.444Z,47.98
2019-03-13T17:17:11.918Z,48.46
2019-03-13T17:22:14.379Z,48.72
2019-03-13T17:27:16.860Z,49.39
2019-03-13T17:32:19.339Z,49.94
2019-03-13T17:37:21.812Z,50.72
2019-03-13T17:42:24.291Z,51.41
2019-03-13T17:47:26.761Z,52.42
2019-03-13T17:52:29.231Z,52.89
2019-03-13T17:57:31.701Z,54.86
2019-03-13T18:02:34.188Z,56.34
2019-03-13T18:07:36.650Z,58.37
2019-03-13T18:12:39.132Z,59.09
2019-03-13T18:17:41.633Z,60.28
2019-03-13T18:22:44.106Z,61.04
2019-03-13T18:27:46.568Z,61.21
2019-03-13T18:32:49.029Z,61.27
2019-03-13T18:37:51.489Z,61.50
2019-03-13T18:42:53.963Z,62.36
2019-03-13T18:47:56.454Z,62.69
2019-03-13T18:52:58.925Z,63.11
2019-03-13T18:58:01.380Z,63.40
2019-03-13T19:03:03.874Z,63.73
2019-03-13T19:08:06.356Z,64.04
2019-03-13T19:13:08.833Z,64.18
2019-03-13T19:18:11.330Z,64.07
2019-03-13T19:23:14.449Z,63.97
2019-03-13T19:28:16.318Z,64.36
2019-03-13T19:33:18.787Z,64.96
2019-03-13T19:38:21.268Z,65.84
2019-03-13T19:43:23.747Z,66.04
2019-03-13T19:48:26.219Z,66.93
2019-03-13T19:53:28.700Z,67.71
2019-03-13T19:58:31.158Z,68.31
2019-03-13T20:03:33.605Z,69.14
2019-03-13T20:08:36.109Z,69.68
2019-03-13T20:13:38.614Z,69.97
2019-03-13T20:18:41.097Z,70.10
2019-03-13T20:23:43.587Z,70.76
2019-03-13T20:28:46.413Z,71.02
2019-03-13T20:33:48.535Z,71.30
2019-03-13T20:38:50.996Z,71.35
2019-03-13T20:43:53.535Z,71.39
2019-03-13T20:48:55.993Z,71.22
2019-03-13T20:53:58.756Z,70.97
2019-03-13T20:59:01.227Z,71.29
2019-03-13T21:04:03.693Z,70.94
2019-03-13T21:09:06.206Z,70.83
2019-03-13T21:14:08.684Z,71.21
2019-03-13T21:19:11.168Z,71.41
2019-03-13T21:24:13.647Z,71.19
2019-03-13T21:29:16.181Z,71.29
2019-03-13T21:34:18.651Z,71.34
2019-03-13T21:39:21.157Z,71.39
2019-03-13T21:44:23.728Z,71.33
2019-03-13T21:49:26.203Z,71.80
2019-03-13T21:54:28.690Z,71.96
2019-03-13T21:59:31.181Z,72.17
2019-03-13T22:04:33.650Z,72.10
2019-03-13T22:09:36.118Z,72.17
2019-03-13T22:14:38.833Z,72.14
2019-03-13T22:19:41.058Z,72.30
2019-03-13T22:24:43.538Z,72.30
2019-03-13T22:29:45.997Z,72.20
2019-03-13T22:34:48.460Z,72.27
2019-03-13T22:39:50.938Z,72.16
2019-03-13T22:44:53.418Z,72.35
2019-03-13T22:49:55.888Z,72.46
2019-03-13T22:54:58.355Z,72.17
2019-03-13T23:00:00.820Z,72.08
2019-03-13T23:05:03.291Z,71.96
2019-03-13T23:10:14.726Z,71.55
2019-03-13T23:15:17.184Z,71.47
2019-03-13T23:20:19.642Z,71.52
2019-03-13T23:25:22.121Z,71.47
2019-03-13T23:30:24.578Z,71.46
2019-03-13T23:35:27.034Z,71.22
2019-03-13T23:40:29.495Z,71.30
2019-03-13T23:45:31.962Z,71.52
2019-03-13T23:50:34.413Z,71.15
2019-03-13T23:55:36.883Z,71.27
